Aérodrome :
LOGIN :

S'inscrire | Disclaimer

   EN    FR    IT 

 










Légende :    VFR   VFR Marginal   IFR   IFR Intensif   IFR Très Intensif
Visi : 
Plafond : 
>= 8 km
>= 3000ft
5 à 8 km
1000 à 3000 ft
1500m à 5 km
500 à 1000 ft
800 à 1500m
200 à 500 ft
< 800m
< 200 ft
Symboles :   Orages  Brouillard  Fortes neiges  Fortes précipitations  Vent > 20 kt
SIGMETs :   Divers  Orages  Givrage  Turbulence  Onde Orograph.  Cendres Volcan.







- Altitude de l'aérodrome : 7 ft
- Code IATA : ESH
- Voir les cartes d'approche


EGKA - Shoreham

DERNIER METAR :
  • 261220Z 31008KT 290V010 9999 FEW036 12/03 Q1034

METARs EXPIRÉS :
  • 261150Z 31009KT 290V350 9999 FEW035 12/05 Q1034
  • 261120Z 31008KT 270V350 9999 FEW032 11/04 Q1034
  • 261050Z 30008KT 9999 FEW028 11/04 Q1034
  • 261020Z 37008KT 9999 FEW028 10/03 Q1035
  • 260950Z 33007KT CAVOK 10/04 Q1035
  • 260920Z 35008KT CAVOK 09/04 Q1035

TAF TAF EGKA
Valide du 26 à 12h jusqu'au 26 à 19h UTC


261058Z 2612/2619 32009KT 9999 FEW040
ATIS : +44 1273 467 372
Pas de NOTAMs connus pour ce terrain.



MET'MAP, la Météo Aéronautique d'un coup d'oeil ! - Copyright ORBIFLY Décembre 2007 - Disclaimer

ORBIFLY MET'MAP TEAM :

Programmation & Développement : Alexandra Zaïnal
Conception & Développement : Baudouin d'Aumeries
Co-Programmation & Développement : Marc-Olivier Méhu
Soutien technique & logistique : Manuel Goepfert

Contact : metmap@orbifly.com




SOURCES & CREDITS :

   NOAA